X  Bliska Dane z Metar lotniska     EPKK Kraków John Paul II International Airport
Temperatura
6°C Temperatura
5°C Punkt rosy
93% Wilgotność



Wiatr
3 KM/H
2 MPH
1 M/S
2 KTS



250°
WSW
Warunki bieżące

Mgiełka Mgiełka
Ciśnienie 1025.92 (hPa) - 30.3 (inHg)
Widoczność 1.9 (mile) - 3 (km)
Lotnisko
Kod lotniska EPKK

Położenie: Kraków John Paul II International Airport
Odległość: 14 (km)

Metar:
EPKK 190230Z 25002KT 3500 BR NSC 06/05 Q1026

Czas: 19-10-2021 04:30 CEST